createdAt,value
2023-04-01T00:01:53.865Z,28.48
2023-04-01T00:04:23.152Z,27.13
2023-04-01T00:06:53.945Z,26.88
2023-04-01T00:09:22.690Z,36.65
2023-04-01T00:11:51.494Z,28.25
2023-04-01T00:14:20.583Z,25.95
2023-04-01T00:16:49.335Z,29.55
2023-04-01T00:19:18.258Z,29.55
2023-04-01T00:21:47.571Z,30.25
2023-04-01T00:24:18.478Z,33.55
2023-04-01T00:26:48.710Z,33.13
2023-04-01T00:29:17.531Z,34.88
2023-04-01T00:31:46.099Z,30.65
2023-04-01T00:34:15.093Z,32.00
2023-04-01T00:36:44.038Z,33.63
2023-04-01T00:39:12.976Z,32.83
2023-04-01T00:41:43.192Z,26.63
2023-04-01T00:44:19.646Z,36.17
2023-04-01T00:46:48.698Z,27.65
2023-04-01T00:49:20.376Z,31.42
2023-04-01T00:51:52.538Z,28.83
2023-04-01T00:54:23.170Z,33.08
2023-04-01T00:56:57.300Z,30.15
2023-04-01T00:59:31.418Z,29.88
2023-04-01T01:02:00.047Z,30.80
2023-04-01T01:04:30.035Z,30.17
2023-04-01T01:07:07.295Z,33.10
2023-04-01T01:09:43.457Z,29.85
2023-04-01T01:12:17.119Z,32.22
2023-04-01T01:14:53.955Z,32.45
2023-04-01T01:17:31.483Z,29.63
2023-04-01T01:20:35.317Z,35.05
2023-04-01T01:23:25.929Z,34.33
2023-04-01T01:26:07.822Z,34.65
2023-04-01T01:28:47.475Z,44.70
2023-04-01T01:31:22.388Z,41.03
2023-04-01T01:33:59.717Z,41.95
2023-04-01T01:36:32.600Z,37.90
2023-04-01T01:39:02.225Z,40.08
2023-04-01T01:41:32.080Z,44.55
2023-04-01T01:44:02.281Z,38.63
2023-04-01T01:46:32.256Z,41.65
2023-04-01T01:49:02.664Z,34.45
2023-04-01T01:51:33.237Z,41.53
2023-04-01T01:54:04.109Z,37.05
2023-04-01T01:56:35.297Z,39.08
2023-04-01T01:59:06.658Z,38.65
2023-04-01T02:01:37.972Z,44.13
2023-04-01T02:04:15.956Z,36.65
2023-04-01T02:06:50.763Z,39.75
2023-04-01T02:09:21.527Z,41.55
2023-04-01T02:11:52.525Z,41.33
2023-04-01T02:14:23.641Z,40.20
2023-04-01T02:16:55.629Z,38.28
2023-04-01T02:19:26.937Z,35.13
2023-04-01T02:22:00.152Z,40.95
2023-04-01T02:24:30.838Z,38.15
2023-04-01T02:26:59.782Z,40.20
2023-04-01T02:29:29.985Z,42.35
2023-04-01T02:31:59.467Z,39.03
2023-04-01T02:34:28.496Z,39.35
2023-04-01T02:36:59.400Z,40.90
2023-04-01T02:39:28.729Z,45.70
2023-04-01T02:41:57.577Z,43.17
2023-04-01T02:44:26.446Z,43.47
2023-04-01T02:46:55.524Z,47.50
2023-04-01T02:49:24.553Z,47.47
2023-04-01T02:51:53.760Z,53.72
2023-04-01T02:54:24.135Z,44.60
2023-04-01T02:59:21.664Z,50.80
2023-04-01T03:01:50.219Z,54.80
2023-04-01T03:04:19.137Z,49.13
2023-04-01T03:06:48.225Z,49.30
2023-04-01T03:09:17.167Z,44.75
2023-04-01T03:11:47.861Z,42.13
2023-04-01T03:14:16.887Z,43.13
2023-04-01T03:16:45.457Z,37.58
2023-04-01T03:19:14.755Z,40.75
2023-04-01T03:21:43.535Z,44.17
2023-04-01T03:24:12.567Z,39.25
2023-04-01T03:26:41.422Z,46.67
2023-04-01T03:29:12.393Z,43.40
2023-04-01T03:31:41.384Z,37.88
2023-04-01T03:34:10.416Z,43.10
2023-04-01T03:36:39.385Z,42.15
2023-04-01T03:39:08.283Z,39.90
2023-04-01T03:41:43.360Z,38.85
2023-04-01T03:44:13.903Z,39.15
2023-04-01T03:46:42.680Z,39.67
2023-04-01T03:49:12.973Z,42.40
2023-04-01T03:54:11.131Z,44.65
2023-04-01T03:56:40.542Z,39.42
2023-04-01T03:59:10.356Z,38.45
2023-04-01T04:01:40.350Z,39.63
2023-04-01T04:04:09.511Z,35.80
2023-04-01T04:06:38.665Z,30.15
2023-04-01T04:09:07.563Z,34.33
2023-04-01T04:11:37.054Z,36.43
2023-04-01T04:14:05.944Z,30.88
2023-04-01T04:16:34.608Z,28.48
2023-04-01T04:19:06.664Z,30.52
2023-04-01T04:21:35.999Z,24.65
2023-04-01T04:24:05.670Z,28.73
2023-04-01T04:26:54.651Z,30.33
2023-04-01T04:29:23.951Z,29.90
2023-04-01T04:31:53.062Z,31.70
2023-04-01T04:34:23.978Z,28.75
2023-04-01T04:36:52.966Z,23.45
2023-04-01T04:41:52.299Z,26.20
2023-04-01T04:44:21.469Z,25.70
2023-04-01T04:46:50.527Z,26.08
2023-04-01T04:49:19.763Z,23.85
2023-04-01T04:51:50.830Z,24.15
2023-04-01T04:54:22.182Z,24.33
2023-04-01T04:56:58.135Z,24.23
2023-04-01T04:59:28.762Z,24.15
2023-04-01T05:02:08.986Z,25.73
2023-04-01T05:04:38.218Z,27.35
2023-04-01T05:07:11.056Z,24.33
2023-04-01T05:09:41.278Z,26.15
2023-04-01T05:12:10.292Z,25.42
2023-04-01T05:14:56.938Z,25.88
2023-04-01T05:17:26.372Z,26.83
2023-04-01T05:19:55.526Z,22.33
2023-04-01T05:22:26.006Z,24.58
2023-04-01T05:24:55.384Z,22.90
2023-04-01T05:27:24.663Z,19.20
2023-04-01T05:29:53.601Z,16.98
2023-04-01T05:32:42.251Z,17.92
2023-04-01T05:35:11.530Z,14.98
2023-04-01T05:37:41.448Z,16.67
2023-04-01T05:42:39.771Z,15.60
2023-04-01T05:45:10.081Z,19.98
2023-04-01T05:47:57.979Z,14.55
2023-04-01T05:50:27.080Z,15.57
2023-04-01T05:52:57.020Z,13.38
2023-04-01T05:57:54.604Z,15.55
2023-04-01T06:00:23.714Z,16.55
2023-04-01T06:02:53.878Z,17.73
2023-04-01T06:05:24.628Z,18.50
2023-04-01T06:07:54.442Z,18.85
2023-04-01T06:10:33.764Z,20.30
2023-04-01T06:13:08.115Z,22.42
2023-04-01T06:15:43.107Z,28.50
2023-04-01T06:18:38.284Z,31.33
2023-04-01T06:21:12.236Z,30.02
2023-04-01T06:23:59.980Z,27.38
2023-04-01T06:26:33.376Z,25.90
2023-04-01T06:29:30.898Z,28.38
2023-04-01T06:32:15.107Z,28.70
2023-04-01T06:35:02.913Z,28.15
2023-04-01T06:37:48.824Z,29.58
2023-04-01T06:40:44.421Z,31.75
2023-04-01T06:43:20.444Z,30.95
2023-04-01T06:46:13.526Z,38.15
2023-04-01T06:49:14.592Z,30.90
2023-04-01T06:51:50.630Z,29.52
2023-04-01T06:54:39.962Z,29.52
2023-04-01T06:57:24.569Z,34.80
2023-04-01T06:59:58.231Z,30.30
2023-04-01T07:02:32.325Z,33.00
2023-04-01T07:05:02.313Z,31.25
2023-04-01T07:07:36.969Z,35.95
2023-04-01T07:10:15.604Z,32.53
2023-04-01T07:13:10.561Z,32.47
2023-04-01T07:16:11.359Z,33.15
2023-04-01T07:18:47.086Z,33.83
2023-04-01T07:21:24.800Z,33.35
2023-04-01T07:23:57.151Z,32.03
2023-04-01T07:26:37.369Z,33.17
2023-04-01T07:29:08.342Z,35.55
2023-04-01T07:32:08.617Z,32.83
2023-04-01T07:34:41.739Z,35.70
2023-04-01T07:37:16.283Z,31.85
2023-04-01T07:39:54.094Z,31.90
2023-04-01T07:42:44.521Z,29.92
2023-04-01T07:45:20.264Z,32.00
2023-04-01T07:48:02.788Z,31.23
2023-04-01T07:50:34.343Z,31.20
2023-04-01T07:53:11.419Z,31.17
2023-04-01T07:55:44.821Z,27.67
2023-04-01T07:58:19.718Z,28.40
2023-04-01T08:00:53.234Z,27.35
2023-04-01T08:03:41.192Z,29.50
2023-04-01T08:06:17.041Z,29.17
2023-04-01T08:08:53.308Z,28.67
2023-04-01T08:12:06.758Z,26.85
2023-04-01T08:15:01.083Z,25.35
2023-04-01T08:18:06.861Z,25.23
2023-04-01T08:20:41.408Z,26.80
2023-04-01T08:23:16.439Z,26.80
2023-04-01T08:25:51.175Z,24.25
2023-04-01T08:28:25.673Z,27.23
2023-04-01T08:30:57.720Z,24.45
2023-04-01T08:33:27.874Z,23.10
2023-04-01T08:36:14.615Z,23.00
2023-04-01T08:38:47.537Z,21.08
2023-04-01T08:41:45.535Z,19.00
2023-04-01T08:45:14.453Z,18.40
2023-04-01T08:47:59.249Z,19.90
2023-04-01T08:50:45.760Z,18.08
2023-04-01T08:53:53.606Z,17.23
2023-04-01T08:56:28.068Z,15.67
2023-04-01T08:59:18.323Z,18.95
2023-04-01T09:02:11.567Z,17.75
2023-04-01T09:05:19.148Z,17.15
2023-04-01T09:07:55.782Z,18.73
2023-04-01T09:10:52.909Z,18.98
2023-04-01T09:14:15.092Z,18.55
2023-04-01T09:17:00.365Z,18.33
2023-04-01T09:19:36.144Z,16.25
2023-04-01T09:22:21.114Z,17.80
2023-04-01T09:25:14.958Z,17.45
2023-04-01T09:27:55.935Z,17.77
2023-04-01T09:31:03.980Z,15.88
2023-04-01T09:34:10.025Z,15.55
2023-04-01T09:37:11.085Z,11.57
2023-04-01T09:39:42.309Z,8.35
2023-04-01T09:42:44.955Z,7.82
2023-04-01T09:45:37.599Z,7.72
2023-04-01T09:48:19.370Z,6.45
2023-04-01T09:50:56.166Z,7.07
2023-04-01T09:53:38.857Z,7.80
2023-04-01T09:56:45.661Z,6.68
2023-04-01T09:59:56.916Z,8.13
2023-04-01T10:03:12.539Z,7.97
2023-04-01T10:06:03.763Z,7.35
2023-04-01T10:09:11.908Z,6.38
2023-04-01T10:12:15.582Z,9.10
2023-04-01T10:15:01.641Z,5.88
2023-04-01T10:17:59.180Z,6.55
2023-04-01T10:20:52.965Z,8.82
2023-04-01T10:23:48.372Z,5.85
2023-04-01T10:26:48.702Z,5.20
2023-04-01T10:30:08.487Z,7.00
2023-04-01T10:33:07.731Z,6.75
2023-04-01T10:36:20.143Z,9.45
2023-04-01T10:39:16.704Z,6.72
2023-04-01T10:42:11.320Z,7.25
2023-04-01T10:45:38.759Z,12.50
2023-04-01T10:48:38.899Z,9.90
2023-04-01T10:51:17.453Z,9.52
2023-04-01T10:53:53.477Z,10.35
2023-04-01T10:56:58.560Z,8.65
2023-04-01T11:00:19.894Z,8.43
2023-04-01T11:03:51.031Z,8.25
2023-04-01T11:07:22.334Z,7.40
2023-04-01T11:10:27.382Z,6.47
2023-04-01T11:13:43.881Z,6.80
2023-04-01T11:16:54.459Z,5.93
2023-04-01T11:23:00.871Z,8.80
2023-04-01T11:25:51.708Z,14.23
2023-04-01T11:28:48.328Z,9.15
2023-04-01T11:31:28.691Z,9.48
2023-04-01T11:34:05.425Z,9.88
2023-04-01T11:36:41.755Z,6.60
2023-04-01T11:42:17.597Z,7.38
2023-04-01T11:45:18.320Z,6.43
2023-04-01T11:47:58.587Z,8.32
2023-04-01T11:50:37.362Z,8.48
2023-04-01T11:53:18.663Z,7.03
2023-04-01T11:55:58.749Z,6.07
2023-04-01T11:58:39.944Z,5.95
2023-04-01T12:01:30.068Z,5.18
2023-04-01T12:04:39.356Z,4.18
2023-04-01T12:07:18.195Z,3.80
2023-04-01T12:09:53.053Z,3.38
2023-04-01T12:12:32.285Z,3.15
2023-04-01T12:15:14.757Z,4.10
2023-04-01T12:17:49.349Z,4.00
2023-04-01T12:20:33.982Z,4.20
2023-04-01T12:23:16.020Z,4.10
2023-04-01T12:26:26.641Z,4.72
2023-04-01T12:29:05.932Z,4.20
2023-04-01T12:31:45.393Z,4.70
2023-04-01T12:34:43.961Z,4.97
2023-04-01T12:37:17.223Z,5.05
2023-04-01T12:40:19.662Z,4.72
2023-04-01T12:43:02.329Z,4.78
2023-04-01T12:45:33.135Z,4.68
2023-04-01T12:48:36.074Z,3.85
2023-04-01T12:51:27.997Z,4.47
2023-04-01T12:54:13.927Z,4.32
2023-04-01T12:56:50.799Z,5.05
2023-04-01T12:59:29.224Z,6.47
2023-04-01T13:02:04.394Z,5.55
2023-04-01T13:05:03.639Z,5.28
2023-04-01T13:07:55.627Z,5.88
2023-04-01T13:10:34.449Z,6.43
2023-04-01T13:13:21.562Z,7.07
2023-04-01T13:15:54.748Z,6.65
2023-04-01T13:18:29.939Z,6.40
2023-04-01T13:21:08.166Z,7.95
2023-04-01T13:23:45.968Z,5.40
2023-04-01T13:26:21.720Z,3.65
2023-04-01T13:28:54.946Z,3.65
2023-04-01T13:31:49.787Z,4.40
2023-04-01T13:34:32.325Z,2.40
2023-04-01T13:37:11.040Z,3.13
2023-04-01T13:39:49.317Z,6.05
2023-04-01T13:42:26.056Z,5.07
2023-04-01T13:45:02.853Z,2.63
2023-04-01T13:47:58.451Z,2.53
2023-04-01T13:51:06.325Z,3.22
2023-04-01T13:53:54.260Z,2.88
2023-04-01T13:56:36.352Z,3.55
2023-04-01T13:59:36.835Z,3.10
2023-04-01T14:02:21.236Z,2.60
2023-04-01T14:04:58.779Z,3.40
2023-04-01T14:07:50.495Z,2.75
2023-04-01T14:10:23.369Z,2.50
2023-04-01T14:13:00.645Z,2.92
2023-04-01T14:15:52.371Z,3.35
2023-04-01T14:18:58.354Z,5.35
2023-04-01T14:21:34.280Z,4.13
2023-04-01T14:24:21.075Z,6.63
2023-04-01T14:27:18.864Z,3.72
2023-04-01T14:29:57.267Z,3.97
2023-04-01T14:32:37.168Z,4.30
2023-04-01T14:35:26.648Z,4.33
2023-04-01T14:38:19.265Z,3.83
2023-04-01T14:40:57.542Z,4.10
2023-04-01T14:43:59.086Z,3.35
2023-04-01T14:46:41.610Z,2.97
2023-04-01T14:49:20.383Z,3.45
2023-04-01T14:51:51.165Z,2.65
2023-04-01T14:54:24.653Z,3.60
2023-04-01T14:57:03.992Z,3.22
2023-04-01T14:59:32.930Z,4.00
2023-04-01T15:02:06.068Z,3.45
2023-04-01T15:04:49.534Z,4.10
2023-04-01T15:07:48.277Z,2.97
2023-04-01T15:10:46.606Z,3.83
2023-04-01T15:13:17.057Z,3.90
2023-04-01T15:15:59.875Z,3.95
2023-04-01T15:18:38.498Z,3.40
2023-04-01T15:21:22.787Z,5.85
2023-04-01T15:23:59.827Z,7.95
2023-04-01T15:26:39.933Z,6.40
2023-04-01T15:31:59.176Z,4.75
2023-04-01T15:34:35.668Z,3.83
2023-04-01T15:37:08.989Z,6.55
2023-04-01T15:39:51.248Z,5.53
2023-04-01T15:42:33.048Z,4.47
2023-04-01T15:45:12.504Z,4.25
2023-04-01T15:47:43.989Z,5.57
2023-04-01T15:50:36.948Z,4.38
2023-04-01T15:53:31.989Z,5.15
2023-04-01T15:56:13.517Z,3.88
2023-04-01T15:58:50.048Z,7.70
2023-04-01T16:01:28.203Z,4.28
2023-04-01T16:07:06.868Z,5.13
2023-04-01T16:09:49.965Z,7.68
2023-04-01T16:12:24.449Z,5.20
2023-04-01T16:15:01.115Z,5.63
2023-04-01T16:17:55.384Z,3.88
2023-04-01T16:20:27.598Z,5.70
2023-04-01T16:23:00.403Z,4.75
2023-04-01T16:25:36.255Z,4.63
2023-04-01T16:28:20.592Z,4.82
2023-04-01T16:30:53.005Z,4.47
2023-04-01T16:33:24.917Z,6.70
2023-04-01T16:35:59.070Z,6.40
2023-04-01T16:38:35.237Z,3.60
2023-04-01T16:41:13.498Z,3.42
2023-04-01T16:43:48.893Z,4.22
2023-04-01T16:46:31.685Z,4.55
2023-04-01T16:49:02.935Z,4.00
2023-04-01T16:51:40.138Z,4.38
2023-04-01T16:54:15.936Z,6.25
2023-04-01T16:56:47.452Z,4.50
2023-04-01T16:59:22.475Z,6.70
2023-04-01T17:01:55.593Z,4.65
2023-04-01T17:04:34.586Z,4.07
2023-04-01T17:07:12.820Z,4.15
2023-04-01T17:09:52.630Z,4.10
2023-04-01T17:12:27.885Z,4.50
2023-04-01T17:15:05.479Z,4.00
2023-04-01T17:17:41.050Z,4.20
2023-04-01T17:20:21.673Z,4.75
2023-04-01T17:22:56.853Z,3.88
2023-04-01T17:25:36.872Z,6.45
2023-04-01T17:28:13.252Z,5.05
2023-04-01T17:30:47.351Z,6.13
2023-04-01T17:33:29.556Z,7.30
2023-04-01T17:36:01.420Z,6.97
2023-04-01T17:38:45.390Z,8.68
2023-04-01T17:41:20.846Z,7.45
2023-04-01T17:43:54.508Z,6.78
2023-04-01T17:46:34.265Z,6.32
2023-04-01T17:49:21.524Z,7.00
2023-04-01T17:51:54.245Z,6.95
2023-04-01T17:54:27.921Z,6.75
2023-04-01T17:57:07.078Z,7.53
2023-04-01T17:59:39.271Z,6.43
2023-04-01T18:02:19.908Z,7.57
2023-04-01T18:05:22.006Z,7.93
2023-04-01T18:08:14.859Z,7.40
2023-04-01T18:10:52.257Z,7.68
2023-04-01T18:13:49.361Z,10.18
2023-04-01T18:16:36.363Z,8.00
2023-04-01T18:19:11.951Z,7.88
2023-04-01T18:21:46.580Z,7.35
2023-04-01T18:24:22.510Z,8.73
2023-04-01T18:26:54.816Z,8.50
2023-04-01T18:29:30.574Z,8.70
2023-04-01T18:32:11.126Z,10.93
2023-04-01T18:34:51.538Z,8.35
2023-04-01T18:37:24.915Z,10.02
2023-04-01T18:39:56.227Z,10.85
2023-04-01T18:42:34.432Z,10.15
2023-04-01T18:45:15.767Z,10.57
2023-04-01T18:47:48.215Z,10.45
2023-04-01T18:50:24.986Z,10.57
2023-04-01T18:52:59.101Z,10.43
2023-04-01T18:55:43.910Z,10.68
2023-04-01T18:58:35.589Z,11.05
2023-04-01T19:01:14.699Z,9.13
2023-04-01T19:03:48.540Z,11.35
2023-04-01T19:06:24.686Z,10.68
2023-04-01T19:08:55.111Z,11.77
2023-04-01T19:14:02.900Z,10.68
2023-04-01T19:16:47.088Z,11.05
2023-04-01T19:19:24.851Z,10.77
2023-04-01T19:22:00.488Z,10.93
2023-04-01T19:24:56.322Z,13.70
2023-04-01T19:27:33.388Z,11.13
2023-04-01T19:30:23.628Z,11.55
2023-04-01T19:32:59.987Z,12.82
2023-04-01T19:35:40.765Z,11.65
2023-04-01T19:38:16.818Z,14.00
2023-04-01T19:40:55.833Z,10.18
2023-04-01T19:43:38.514Z,12.25
2023-04-01T19:46:14.683Z,10.45
2023-04-01T19:48:56.389Z,11.00
2023-04-01T19:51:28.014Z,11.07
2023-04-01T19:54:02.165Z,9.70
2023-04-01T19:56:36.473Z,9.77
2023-04-01T19:59:11.020Z,12.30
2023-04-01T20:01:45.450Z,10.45
2023-04-01T20:04:17.724Z,9.73
2023-04-01T20:06:51.269Z,9.40
2023-04-01T20:09:41.852Z,10.55
2023-04-01T20:12:20.387Z,10.15
2023-04-01T20:14:52.197Z,9.30
2023-04-01T20:17:23.495Z,9.50
2023-04-01T20:19:57.755Z,10.45
2023-04-01T20:22:35.886Z,10.80
2023-04-01T20:25:15.250Z,10.77
2023-04-01T20:27:48.804Z,9.80
2023-04-01T20:30:45.781Z,9.80
2023-04-01T20:33:44.596Z,11.07
2023-04-01T20:36:19.362Z,9.85
2023-04-01T20:39:21.736Z,9.93
2023-04-01T20:42:01.627Z,12.88
2023-04-01T20:44:35.928Z,10.45
2023-04-01T20:47:12.437Z,9.98
2023-04-01T20:49:43.007Z,10.35
2023-04-01T20:52:32.254Z,9.00
2023-04-01T20:55:24.893Z,8.32
2023-04-01T20:58:03.819Z,10.45
2023-04-01T21:00:40.120Z,12.57
2023-04-01T21:03:15.677Z,12.43
2023-04-01T21:06:17.382Z,8.93
2023-04-01T21:08:59.992Z,8.68
2023-04-01T21:11:34.412Z,9.80
2023-04-01T21:14:16.718Z,8.27
2023-04-01T21:16:51.288Z,10.55
2023-04-01T21:19:43.636Z,9.45
2023-04-01T21:22:24.725Z,11.13
2023-04-01T21:25:20.293Z,11.88
2023-04-01T21:27:59.518Z,8.40
2023-04-01T21:30:42.496Z,9.30
2023-04-01T21:33:24.389Z,10.82
2023-04-01T21:35:59.600Z,9.88
2023-04-01T21:38:38.520Z,7.55
2023-04-01T21:41:17.414Z,7.82
2023-04-01T21:44:01.999Z,9.93
2023-04-01T21:47:02.831Z,6.97
2023-04-01T21:49:50.422Z,8.15
2023-04-01T21:52:32.606Z,6.55
2023-04-01T21:55:36.403Z,7.57
2023-04-01T21:58:34.956Z,8.75
2023-04-01T22:01:16.977Z,9.35
2023-04-01T22:04:14.397Z,8.57
2023-04-01T22:06:49.502Z,9.43
2023-04-01T22:09:21.051Z,9.85
2023-04-01T22:11:56.907Z,8.35
2023-04-01T22:14:32.650Z,11.20
2023-04-01T22:17:04.692Z,8.40
2023-04-01T22:19:41.089Z,8.52
2023-04-01T22:22:16.021Z,9.25
2023-04-01T22:24:51.562Z,8.00
2023-04-01T22:27:26.106Z,8.32
2023-04-01T22:30:03.942Z,8.07
2023-04-01T22:32:36.777Z,7.32
2023-04-01T22:35:13.114Z,8.50
2023-04-01T22:37:47.100Z,8.15
2023-04-01T22:40:25.369Z,8.60
2023-04-01T22:42:59.757Z,9.15
2023-04-01T22:46:00.163Z,7.28
2023-04-01T22:48:34.138Z,9.35
2023-04-01T22:51:10.408Z,8.70
2023-04-01T22:53:49.491Z,9.32
2023-04-01T22:56:21.330Z,9.55
2023-04-01T22:58:53.526Z,9.10
2023-04-01T23:01:27.073Z,10.55
2023-04-01T23:03:56.693Z,8.57
2023-04-01T23:06:30.212Z,9.20
2023-04-01T23:09:10.186Z,8.02
2023-04-01T23:11:47.180Z,8.77
2023-04-01T23:14:45.496Z,7.03
2023-04-01T23:17:22.578Z,7.57
2023-04-01T23:19:55.313Z,10.30
2023-04-01T23:22:29.903Z,8.43
2023-04-01T23:25:03.129Z,9.23
2023-04-01T23:27:36.066Z,9.77
2023-04-01T23:30:06.890Z,9.57
2023-04-01T23:32:35.844Z,10.25
2023-04-01T23:35:04.890Z,8.15
2023-04-01T23:37:34.904Z,7.32
2023-04-01T23:42:41.081Z,8.63
2023-04-01T23:45:18.290Z,11.63
2023-04-01T23:47:49.328Z,8.05
2023-04-01T23:50:21.479Z,8.75
2023-04-01T23:52:54.869Z,8.30
2023-04-01T23:55:26.266Z,8.60
2023-04-01T23:58:16.383Z,6.85
